sensor_id;sensor_type;location;lat;lon;timestamp;pressure;altitude;pressure_sealevel;temperature;humidity
71974;BME280;59840;52.122;5.404;2023-05-12T00:00:01;101862.31;;;11.02;100.00
71974;BME280;59840;52.122;5.404;2023-05-12T00:02:28;101865.75;;;11.03;100.00
71974;BME280;59840;52.122;5.404;2023-05-12T00:04:57;101862.53;;;11.01;100.00
71974;BME280;59840;52.122;5.404;2023-05-12T00:07:24;101866.84;;;10.95;100.00
71974;BME280;59840;52.122;5.404;2023-05-12T00:09:51;101863.63;;;10.93;100.00
71974;BME280;59840;52.122;5.404;2023-05-12T00:12:17;101863.25;;;10.90;100.00
71974;BME280;59840;52.122;5.404;2023-05-12T00:14:44;101861.63;;;10.89;100.00
71974;BME280;59840;52.122;5.404;2023-05-12T00:17:10;101861.06;;;10.87;100.00
71974;BME280;59840;52.122;5.404;2023-05-12T00:19:39;101860.47;;;10.85;100.00
71974;BME280;59840;52.122;5.404;2023-05-12T00:22:09;101860.25;;;10.86;100.00
71974;BME280;59840;52.122;5.404;2023-05-12T00:24:36;101854.59;;;10.83;100.00
71974;BME280;59840;52.122;5.404;2023-05-12T00:27:04;101858.03;;;10.83;100.00
71974;BME280;59840;52.122;5.404;2023-05-12T00:29:32;101855.19;;;10.85;100.00
71974;BME280;59840;52.122;5.404;2023-05-12T00:31:58;101849.91;;;10.85;100.00
71974;BME280;59840;52.122;5.404;2023-05-12T00:34:26;101851.75;;;10.84;100.00
71974;BME280;59840;52.122;5.404;2023-05-12T00:36:53;101841.41;;;10.83;100.00
71974;BME280;59840;52.122;5.404;2023-05-12T00:39:20;101850.94;;;10.84;100.00
71974;BME280;59840;52.122;5.404;2023-05-12T00:41:46;101840.00;;;10.80;100.00
71974;BME280;59840;52.122;5.404;2023-05-12T00:44:15;101847.91;;;10.80;100.00
71974;BME280;59840;52.122;5.404;2023-05-12T00:46:43;101848.13;;;10.79;100.00
71974;BME280;59840;52.122;5.404;2023-05-12T00:49:10;101844.09;;;10.76;100.00
71974;BME280;59840;52.122;5.404;2023-05-12T00:51:38;101843.88;;;10.78;100.00
71974;BME280;59840;52.122;5.404;2023-05-12T00:54:05;101845.13;;;10.75;100.00
71974;BME280;59840;52.122;5.404;2023-05-12T00:56:32;101837.00;;;10.77;100.00
71974;BME280;59840;52.122;5.404;2023-05-12T00:59:05;101843.06;;;10.77;100.00
71974;BME280;59840;52.122;5.404;2023-05-12T01:01:32;101850.19;;;10.77;100.00
71974;BME280;59840;52.122;5.404;2023-05-12T01:03:59;101839.84;;;10.75;100.00
71974;BME280;59840;52.122;5.404;2023-05-12T01:06:41;101831.94;;;10.75;100.00
71974;BME280;59840;52.122;5.404;2023-05-12T01:09:09;101835.38;;;10.75;100.00
71974;BME280;59840;52.122;5.404;2023-05-12T01:11:36;101831.13;;;10.74;100.00
71974;BME280;59840;52.122;5.404;2023-05-12T01:14:03;101821.84;;;10.72;100.00
71974;BME280;59840;52.122;5.404;2023-05-12T01:16:35;101817.81;;;10.69;100.00
71974;BME280;59840;52.122;5.404;2023-05-12T01:19:05;101820.44;;;10.69;100.00
71974;BME280;59840;52.122;5.404;2023-05-12T01:21:33;101823.31;;;10.68;100.00
71974;BME280;59840;52.122;5.404;2023-05-12T01:24:02;101817.22;;;10.67;100.00
71974;BME280;59840;52.122;5.404;2023-05-12T01:26:31;101806.66;;;10.67;100.00
71974;BME280;59840;52.122;5.404;2023-05-12T01:29:01;101815.16;;;10.69;100.00
71974;BME280;59840;52.122;5.404;2023-05-12T01:31:29;101809.88;;;10.69;100.00
71974;BME280;59840;52.122;5.404;2023-05-12T01:33:56;101806.22;;;10.70;100.00
71974;BME280;59840;52.122;5.404;2023-05-12T01:36:22;101813.34;;;10.70;100.00
71974;BME280;59840;52.122;5.404;2023-05-12T01:38:49;101813.72;;;10.73;100.00
71974;BME280;59840;52.122;5.404;2023-05-12T01:41:15;101798.91;;;10.72;100.00
71974;BME280;59840;52.122;5.404;2023-05-12T01:43:42;101801.53;;;10.72;100.00
71974;BME280;59840;52.122;5.404;2023-05-12T01:46:08;101812.66;;;10.74;100.00
71974;BME280;59840;52.122;5.404;2023-05-12T01:48:36;101811.88;;;10.74;100.00
71974;BME280;59840;52.122;5.404;2023-05-12T01:51:06;101813.22;;;10.77;100.00
71974;BME280;59840;52.122;5.404;2023-05-12T01:53:33;101809.78;;;10.76;100.00
71974;BME280;59840;52.122;5.404;2023-05-12T01:55:59;101814.84;;;10.78;100.00
71974;BME280;59840;52.122;5.404;2023-05-12T01:58:26;101812.22;;;10.78;100.00
71974;BME280;59840;52.122;5.404;2023-05-12T02:00:52;101819.91;;;10.79;100.00
71974;BME280;59840;52.122;5.404;2023-05-12T02:03:18;101813.81;;;10.79;100.00
71974;BME280;59840;52.122;5.404;2023-05-12T02:05:45;101823.34;;;10.80;100.00
71974;BME280;59840;52.122;5.404;2023-05-12T02:08:11;101818.28;;;10.78;100.00
71974;BME280;59840;52.122;5.404;2023-05-12T02:10:38;101814.25;;;10.75;100.00
71974;BME280;59840;52.122;5.404;2023-05-12T02:13:04;101806.94;;;10.78;100.00
71974;BME280;59840;52.122;5.404;2023-05-12T02:15:31;101813.00;;;10.78;100.00
71974;BME280;59840;52.122;5.404;2023-05-12T02:17:58;101812.00;;;10.79;100.00
71974;BME280;59840;52.122;5.404;2023-05-12T02:20:25;101810.16;;;10.80;100.00
71974;BME280;59840;52.122;5.404;2023-05-12T02:22:52;101804.06;;;10.79;100.00
71974;BME280;59840;52.122;5.404;2023-05-12T02:25:19;101804.44;;;10.83;100.00
71974;BME280;59840;52.122;5.404;2023-05-12T02:27:46;101808.09;;;10.82;100.00
71974;BME280;59840;52.122;5.404;2023-05-12T02:30:13;101801.22;;;10.81;100.00
71974;BME280;59840;52.122;5.404;2023-05-12T02:32:40;101812.78;;;10.80;100.00
71974;BME280;59840;52.122;5.404;2023-05-12T02:35:07;101805.91;;;10.79;100.00
71974;BME280;59840;52.122;5.404;2023-05-12T02:37:33;101813.59;;;10.80;100.00
71974;BME280;59840;52.122;5.404;2023-05-12T02:40:00;101797.97;;;10.79;100.00
71974;BME280;59840;52.122;5.404;2023-05-12T02:42:26;101799.00;;;10.78;100.00
71974;BME280;59840;52.122;5.404;2023-05-12T02:44:59;101795.56;;;10.77;100.00
71974;BME280;59840;52.122;5.404;2023-05-12T02:47:25;101804.28;;;10.78;100.00
71974;BME280;59840;52.122;5.404;2023-05-12T02:49:52;101794.75;;;10.77;100.00
71974;BME280;59840;52.122;5.404;2023-05-12T02:52:20;101801.06;;;10.75;100.00
71974;BME280;59840;52.122;5.404;2023-05-12T02:54:47;101784.19;;;10.77;100.00
71974;BME280;59840;52.122;5.404;2023-05-12T02:57:14;101791.53;;;10.74;100.00
71974;BME280;59840;52.122;5.404;2023-05-12T02:59:40;101795.78;;;10.75;100.00
71974;BME280;59840;52.122;5.404;2023-05-12T03:02:07;101794.97;;;10.75;100.00
71974;BME280;59840;52.122;5.404;2023-05-12T03:04:34;101784.66;;;10.73;100.00
71974;BME280;59840;52.122;5.404;2023-05-12T03:07:00;101788.88;;;10.74;100.00
71974;BME280;59840;52.122;5.404;2023-05-12T03:09:27;101789.13;;;10.73;100.00
71974;BME280;59840;52.122;5.404;2023-05-12T03:11:53;101793.63;;;10.72;100.00
71974;BME280;59840;52.122;5.404;2023-05-12T03:14:20;101788.88;;;10.74;100.00
71974;BME280;59840;52.122;5.404;2023-05-12T03:16:46;101794.16;;;10.74;100.00
71974;BME280;59840;52.122;5.404;2023-05-12T03:19:13;101797.06;;;10.73;100.00
71974;BME280;59840;52.122;5.404;2023-05-12T03:21:39;101778.00;;;10.71;100.00
71974;BME280;59840;52.122;5.404;2023-05-12T03:24:06;101785.69;;;10.72;100.00
71974;BME280;59840;52.122;5.404;2023-05-12T03:26:33;101785.69;;;10.72;100.00
71974;BME280;59840;52.122;5.404;2023-05-12T03:28:59;101783.06;;;10.72;100.00
71974;BME280;59840;52.122;5.404;2023-05-12T03:31:26;101787.31;;;10.73;100.00
71974;BME280;59840;52.122;5.404;2023-05-12T03:33:53;101779.38;;;10.73;100.00
71974;BME280;59840;52.122;5.404;2023-05-12T03:36:19;101780.97;;;10.74;100.00
71974;BME280;59840;52.122;5.404;2023-05-12T03:38:46;101779.94;;;10.75;100.00
71974;BME280;59840;52.122;5.404;2023-05-12T03:41:12;101777.88;;;10.78;100.00
71974;BME280;59840;52.122;5.404;2023-05-12T03:43:39;101777.09;;;10.77;100.00
71974;BME280;59840;52.122;5.404;2023-05-12T03:46:05;101772.38;;;10.79;100.00
71974;BME280;59840;52.122;5.404;2023-05-12T03:48:32;101769.75;;;10.79;100.00
71974;BME280;59840;52.122;5.404;2023-05-12T03:50:59;101777.44;;;10.81;100.00
71974;BME280;59840;52.122;5.404;2023-05-12T03:53:25;101783.31;;;10.83;100.00
71974;BME280;59840;52.122;5.404;2023-05-12T03:55:52;101780.44;;;10.84;100.00
71974;BME280;59840;52.122;5.404;2023-05-12T03:58:18;101772.91;;;10.88;100.00
71974;BME280;59840;52.122;5.404;2023-05-12T04:00:45;101773.91;;;10.87;100.00
71974;BME280;59840;52.122;5.404;2023-05-12T04:03:12;101775.53;;;10.88;100.00
71974;BME280;59840;52.122;5.404;2023-05-12T04:05:38;101777.72;;;10.91;100.00
71974;BME280;59840;52.122;5.404;2023-05-12T04:08:05;101764.53;;;10.91;100.00
71974;BME280;59840;52.122;5.404;2023-05-12T04:10:31;101767.97;;;10.91;100.00
71974;BME280;59840;52.122;5.404;2023-05-12T04:12:58;101773.03;;;10.93;100.00
71974;BME280;59840;52.122;5.404;2023-05-12T04:15:25;101777.88;;;10.96;100.00
71974;BME280;59840;52.122;5.404;2023-05-12T04:17:51;101776.84;;;10.97;100.00
71974;BME280;59840;52.122;5.404;2023-05-12T04:20:18;101785.13;;;11.00;100.00
71974;BME280;59840;52.122;5.404;2023-05-12T04:22:45;101770.31;;;10.99;100.00
71974;BME280;59840;52.122;5.404;2023-05-12T04:25:12;101776.97;;;11.02;100.00
71974;BME280;59840;52.122;5.404;2023-05-12T04:27:39;101785.50;;;11.04;100.00
71974;BME280;59840;52.122;5.404;2023-05-12T04:30:06;101783.44;;;11.06;100.00
71974;BME280;59840;52.122;5.404;2023-05-12T04:32:33;101782.41;;;11.07;100.00
71974;BME280;59840;52.122;5.404;2023-05-12T04:34:59;101788.25;;;11.09;100.00
71974;BME280;59840;52.122;5.404;2023-05-12T04:37:26;101784.56;;;11.10;100.00
71974;BME280;59840;52.122;5.404;2023-05-12T04:39:52;101797.56;;;11.12;100.00
71974;BME280;59840;52.122;5.404;2023-05-12T04:42:19;101792.03;;;11.13;100.00
71974;BME280;59840;52.122;5.404;2023-05-12T04:44:45;101785.72;;;11.14;100.00
71974;BME280;59840;52.122;5.404;2023-05-12T04:47:12;101794.25;;;11.16;100.00
71974;BME280;59840;52.122;5.404;2023-05-12T04:49:39;101787.34;;;11.15;100.00
71974;BME280;59840;52.122;5.404;2023-05-12T04:52:06;101790.13;;;11.20;100.00
71974;BME280;59840;52.122;5.404;2023-05-12T04:54:32;101802.88;;;11.23;100.00
71974;BME280;59840;52.122;5.404;2023-05-12T04:56:59;101800.25;;;11.23;100.00
71974;BME280;59840;52.122;5.404;2023-05-12T04:59:25;101796.56;;;11.24;100.00
71974;BME280;59840;52.122;5.404;2023-05-12T05:01:52;101807.94;;;11.25;100.00
71974;BME280;59840;52.122;5.404;2023-05-12T05:04:18;101809.13;;;11.29;100.00
71974;BME280;59840;52.122;5.404;2023-05-12T05:06:45;101809.91;;;11.29;100.00
71974;BME280;59840;52.122;5.404;2023-05-12T05:09:12;101811.31;;;11.32;100.00
71974;BME280;59840;52.122;5.404;2023-05-12T05:11:38;101811.88;;;11.34;100.00
71974;BME280;59840;52.122;5.404;2023-05-12T05:14:05;101824.06;;;11.35;100.00
71974;BME280;59840;52.122;5.404;2023-05-12T05:16:32;101829.13;;;11.36;100.00
71974;BME280;59840;52.122;5.404;2023-05-12T05:18:58;101838.22;;;11.40;100.00
71974;BME280;59840;52.122;5.404;2023-05-12T05:21:31;101832.47;;;11.43;100.00
71974;BME280;59840;52.122;5.404;2023-05-12T05:23:58;101840.16;;;11.45;100.00
71974;BME280;59840;52.122;5.404;2023-05-12T05:26:24;101840.75;;;11.47;100.00
71974;BME280;59840;52.122;5.404;2023-05-12T05:28:51;101842.13;;;11.50;100.00
71974;BME280;59840;52.122;5.404;2023-05-12T05:31:20;101839.28;;;11.51;100.00
71974;BME280;59840;52.122;5.404;2023-05-12T05:33:47;101835.97;;;11.56;100.00
71974;BME280;59840;52.122;5.404;2023-05-12T05:36:14;101833.91;;;11.58;100.00
71974;BME280;59840;52.122;5.404;2023-05-12T05:38:40;101836.91;;;11.61;100.00
71974;BME280;59840;52.122;5.404;2023-05-12T05:41:07;101835.88;;;11.62;100.00
71974;BME280;59840;52.122;5.404;2023-05-12T05:43:33;101833.00;;;11.64;100.00
71974;BME280;59840;52.122;5.404;2023-05-12T05:46:01;101827.25;;;11.67;100.00
71974;BME280;59840;52.122;5.404;2023-05-12T05:48:27;101836.34;;;11.71;100.00
71974;BME280;59840;52.122;5.404;2023-05-12T05:50:55;101840.16;;;11.75;100.00
71974;BME280;59840;52.122;5.404;2023-05-12T05:53:21;101854.00;;;11.77;100.00
71974;BME280;59840;52.122;5.404;2023-05-12T05:55:48;101852.16;;;11.78;100.00
71974;BME280;59840;52.122;5.404;2023-05-12T05:58:15;101850.63;;;11.82;100.00
71974;BME280;59840;52.122;5.404;2023-05-12T06:00:42;101849.38;;;11.84;100.00
71974;BME280;59840;52.122;5.404;2023-05-12T06:03:08;101858.34;;;11.83;100.00
71974;BME280;59840;52.122;5.404;2023-05-12T06:05:35;101861.13;;;11.88;100.00
71974;BME280;59840;52.122;5.404;2023-05-12T06:08:03;101868.59;;;11.91;100.00
71974;BME280;59840;52.122;5.404;2023-05-12T06:10:34;101873.44;;;11.94;100.00
71974;BME280;59840;52.122;5.404;2023-05-12T06:13:01;101874.00;;;11.96;100.00
71974;BME280;59840;52.122;5.404;2023-05-12T06:15:27;101877.25;;;11.98;100.00
71974;BME280;59840;52.122;5.404;2023-05-12T06:17:54;101865.63;;;11.99;100.00
71974;BME280;59840;52.122;5.404;2023-05-12T06:20:21;101873.47;;;12.06;100.00
71974;BME280;59840;52.122;5.404;2023-05-12T06:22:48;101882.31;;;12.12;100.00
71974;BME280;59840;52.122;5.404;2023-05-12T06:25:15;101881.03;;;12.14;100.00
71974;BME280;59840;52.122;5.404;2023-05-12T06:27:41;101886.91;;;12.16;100.00
71974;BME280;59840;52.122;5.404;2023-05-12T06:30:08;101884.63;;;12.20;100.00
71974;BME280;59840;52.122;5.404;2023-05-12T06:32:35;101886.81;;;12.23;100.00
71974;BME280;59840;52.122;5.404;2023-05-12T06:35:02;101889.91;;;12.31;100.00
71974;BME280;59840;52.122;5.404;2023-05-12T06:37:28;101890.84;;;12.37;100.00
71974;BME280;59840;52.122;5.404;2023-05-12T06:39:55;101893.59;;;12.42;100.00
71974;BME280;59840;52.122;5.404;2023-05-12T06:42:21;101890.72;;;12.44;100.00
71974;BME280;59840;52.122;5.404;2023-05-12T06:44:48;101896.03;;;12.44;100.00
71974;BME280;59840;52.122;5.404;2023-05-12T06:47:14;101898.44;;;12.45;100.00
71974;BME280;59840;52.122;5.404;2023-05-12T06:49:41;101907.28;;;12.51;100.00
71974;BME280;59840;52.122;5.404;2023-05-12T06:52:08;101904.41;;;12.52;100.00
71974;BME280;59840;52.122;5.404;2023-05-12T06:54:34;101898.41;;;12.57;100.00
71974;BME280;59840;52.122;5.404;2023-05-12T06:57:01;101907.75;;;12.59;100.00
71974;BME280;59840;52.122;5.404;2023-05-12T06:59:27;101914.88;;;12.59;100.00
71974;BME280;59840;52.122;5.404;2023-05-12T07:01:54;101910.97;;;12.61;100.00
71974;BME280;59840;52.122;5.404;2023-05-12T07:04:21;101913.72;;;12.66;100.00
71974;BME280;59840;52.122;5.404;2023-05-12T07:06:48;101914.78;;;12.77;100.00
71974;BME280;59840;52.122;5.404;2023-05-12T07:09:14;101915.13;;;12.81;100.00
71974;BME280;59840;52.122;5.404;2023-05-12T07:11:44;101911.97;;;12.84;100.00
71974;BME280;59840;52.122;5.404;2023-05-12T07:14:10;101916.69;;;12.93;100.00
71974;BME280;59840;52.122;5.404;2023-05-12T07:16:37;101917.25;;;13.07;100.00
71974;BME280;59840;52.122;5.404;2023-05-12T07:19:03;101921.19;;;13.16;100.00
71974;BME280;59840;52.122;5.404;2023-05-12T07:21:31;101925.84;;;13.26;100.00
71974;BME280;59840;52.122;5.404;2023-05-12T07:23:58;101923.06;;;13.32;100.00
71974;BME280;59840;52.122;5.404;2023-05-12T07:26:24;101919.47;;;13.38;100.00
71974;BME280;59840;52.122;5.404;2023-05-12T07:28:54;101924.47;;;13.52;100.00
71974;BME280;59840;52.122;5.404;2023-05-12T07:31:20;101927.56;;;13.60;100.00
71974;BME280;59840;52.122;5.404;2023-05-12T07:33:47;101930.09;;;13.67;100.00
71974;BME280;59840;52.122;5.404;2023-05-12T07:36:14;101926.94;;;13.70;100.00
71974;BME280;59840;52.122;5.404;2023-05-12T07:38:40;101932.22;;;13.82;100.00
71974;BME280;59840;52.122;5.404;2023-05-12T07:41:07;101924.06;;;13.88;100.00
71974;BME280;59840;52.122;5.404;2023-05-12T07:43:33;101933.75;;;13.94;100.00
71974;BME280;59840;52.122;5.404;2023-05-12T07:46:00;101936.81;;;14.03;100.00
71974;BME280;59840;52.122;5.404;2023-05-12T07:48:26;101927.97;;;14.14;100.00
71974;BME280;59840;52.122;5.404;2023-05-12T07:50:53;101935.03;;;14.25;100.00
71974;BME280;59840;52.122;5.404;2023-05-12T07:53:20;101934.97;;;14.37;100.00
71974;BME280;59840;52.122;5.404;2023-05-12T07:55:46;101929.16;;;14.57;100.00
71974;BME280;59840;52.122;5.404;2023-05-12T07:58:13;101938.97;;;14.56;100.00
71974;BME280;59840;52.122;5.404;2023-05-12T08:00:40;101937.66;;;14.54;100.00
71974;BME280;59840;52.122;5.404;2023-05-12T08:03:07;101938.00;;;14.62;100.00
71974;BME280;59840;52.122;5.404;2023-05-12T08:05:34;101947.19;;;14.71;100.00
71974;BME280;59840;52.122;5.404;2023-05-12T08:08:00;101943.31;;;14.79;100.00
71974;BME280;59840;52.122;5.404;2023-05-12T08:10:27;101941.31;;;14.91;100.00
71974;BME280;59840;52.122;5.404;2023-05-12T08:12:55;101945.66;;;14.97;100.00
71974;BME280;59840;52.122;5.404;2023-05-12T08:15:22;101943.25;;;14.96;100.00
71974;BME280;59840;52.122;5.404;2023-05-12T08:17:48;101950.31;;;15.07;100.00
71974;BME280;59840;52.122;5.404;2023-05-12T08:20:15;101937.16;;;15.17;100.00
71974;BME280;59840;52.122;5.404;2023-05-12T08:22:42;101943.94;;;15.08;100.00
71974;BME280;59840;52.122;5.404;2023-05-12T08:25:09;101951.50;;;15.16;100.00
71974;BME280;59840;52.122;5.404;2023-05-12T08:27:38;101940.94;;;15.21;100.00
71974;BME280;59840;52.122;5.404;2023-05-12T08:30:05;101944.00;;;15.35;100.00
71974;BME280;59840;52.122;5.404;2023-05-12T08:32:31;101949.00;;;15.53;99.94
71974;BME280;59840;52.122;5.404;2023-05-12T08:34:59;101946.16;;;15.60;99.92
71974;BME280;59840;52.122;5.404;2023-05-12T08:37:26;101954.69;;;15.62;98.89
71974;BME280;59840;52.122;5.404;2023-05-12T08:39:54;101956.28;;;15.63;97.02
71974;BME280;59840;52.122;5.404;2023-05-12T08:42:36;101956.78;;;15.60;97.09
71974;BME280;59840;52.122;5.404;2023-05-12T08:45:03;101960.56;;;15.64;96.63
71974;BME280;59840;52.122;5.404;2023-05-12T08:47:32;101963.03;;;15.70;94.92
71974;BME280;59840;52.122;5.404;2023-05-12T08:50:02;101959.31;;;15.71;95.68
71974;BME280;59840;52.122;5.404;2023-05-12T08:52:32;101968.72;;;15.79;95.67
71974;BME280;59840;52.122;5.404;2023-05-12T08:54:59;101961.19;;;16.03;95.24
71974;BME280;59840;52.122;5.404;2023-05-12T08:57:27;101965.81;;;16.13;93.41
71974;BME280;59840;52.122;5.404;2023-05-12T08:59:56;101963.97;;;16.13;92.79
71974;BME280;59840;52.122;5.404;2023-05-12T09:02:24;101989.78;;;16.13;89.41
71974;BME280;59840;52.122;5.404;2023-05-12T09:05:03;101970.03;;;16.08;90.97
71974;BME280;59840;52.122;5.404;2023-05-12T09:07:30;101961.28;;;16.13;90.99
71974;BME280;59840;52.122;5.404;2023-05-12T09:09:58;101969.69;;;16.27;91.39
71974;BME280;59840;52.122;5.404;2023-05-12T09:12:30;101981.03;;;16.49;93.19
71974;BME280;59840;52.122;5.404;2023-05-12T09:15:06;101978.97;;;16.61;88.57
71974;BME280;59840;52.122;5.404;2023-05-12T09:17:36;101981.09;;;16.59;89.46
71974;BME280;59840;52.122;5.404;2023-05-12T09:20:03;101982.97;;;16.59;87.30
71974;BME280;59840;52.122;5.404;2023-05-12T09:22:32;101982.13;;;16.53;85.79
71974;BME280;59840;52.122;5.404;2023-05-12T09:25:00;101984.53;;;16.55;87.32
71974;BME280;59840;52.122;5.404;2023-05-12T09:27:28;101982.16;;;16.58;84.88
71974;BME280;59840;52.122;5.404;2023-05-12T09:29:55;101988.31;;;16.64;84.93
71974;BME280;59840;52.122;5.404;2023-05-12T09:32:29;101982.28;;;16.73;84.94
71974;BME280;59840;52.122;5.404;2023-05-12T09:35:04;101995.38;;;16.80;81.77
71974;BME280;59840;52.122;5.404;2023-05-12T09:37:33;101992.94;;;16.73;80.23
71974;BME280;59840;52.122;5.404;2023-05-12T09:40:05;101988.41;;;16.74;80.45
71974;BME280;59840;52.122;5.404;2023-05-12T09:42:34;101988.72;;;16.83;80.18
71974;BME280;59840;52.122;5.404;2023-05-12T09:45:05;102000.44;;;16.82;80.29
71974;BME280;59840;52.122;5.404;2023-05-12T09:47:37;101998.56;;;16.77;80.02
71974;BME280;59840;52.122;5.404;2023-05-12T09:50:05;101999.63;;;16.76;80.78
71974;BME280;59840;52.122;5.404;2023-05-12T09:52:38;102004.72;;;16.83;79.84
71974;BME280;59840;52.122;5.404;2023-05-12T09:55:09;102004.78;;;16.93;80.75
71974;BME280;59840;52.122;5.404;2023-05-12T09:57:39;102011.03;;;17.14;79.29
71974;BME280;59840;52.122;5.404;2023-05-12T10:00:08;102016.22;;;17.40;80.06
71974;BME280;59840;52.122;5.404;2023-05-12T10:02:56;102006.69;;;17.60;78.36
71974;BME280;59840;52.122;5.404;2023-05-12T10:05:23;102008.28;;;17.61;76.95
71974;BME280;59840;52.122;5.404;2023-05-12T10:07:53;102000.28;;;17.61;76.51
71974;BME280;59840;52.122;5.404;2023-05-12T10:10:24;102003.47;;;17.58;76.10
71974;BME280;59840;52.122;5.404;2023-05-12T10:12:51;102012.53;;;17.57;75.65
71974;BME280;59840;52.122;5.404;2023-05-12T10:15:19;102001.34;;;17.60;76.27
71974;BME280;59840;52.122;5.404;2023-05-12T10:17:47;102002.72;;;17.67;76.29
71974;BME280;59840;52.122;5.404;2023-05-12T10:20:17;102009.41;;;17.65;76.01
71974;BME280;59840;52.122;5.404;2023-05-12T10:22:44;102003.00;;;17.76;76.16
71974;BME280;59840;52.122;5.404;2023-05-12T10:25:12;102003.28;;;17.85;77.90
71974;BME280;59840;52.122;5.404;2023-05-12T10:27:39;101999.84;;;17.89;76.38
71974;BME280;59840;52.122;5.404;2023-05-12T10:30:07;102005.72;;;17.96;77.12
71974;BME280;59840;52.122;5.404;2023-05-12T10:32:34;101999.84;;;17.99;73.46
71974;BME280;59840;52.122;5.404;2023-05-12T10:35:08;102006.53;;;18.07;74.77
71974;BME280;59840;52.122;5.404;2023-05-12T10:37:35;102006.81;;;18.21;74.12
71974;BME280;59840;52.122;5.404;2023-05-12T10:40:03;102003.88;;;18.32;72.63
71974;BME280;59840;52.122;5.404;2023-05-12T10:42:38;102007.34;;;18.43;73.59
71974;BME280;59840;52.122;5.404;2023-05-12T10:45:15;102010.81;;;18.43;72.76
71974;BME280;59840;52.122;5.404;2023-05-12T10:47:44;102006.25;;;18.54;74.38
71974;BME280;59840;52.122;5.404;2023-05-12T10:50:12;102003.06;;;18.57;71.95
71974;BME280;59840;52.122;5.404;2023-05-12T10:52:40;101999.31;;;18.58;71.33
71974;BME280;59840;52.122;5.404;2023-05-12T10:55:11;102006.03;;;18.66;72.63
71974;BME280;59840;52.122;5.404;2023-05-12T10:57:48;102014.53;;;18.73;71.96
71974;BME280;59840;52.122;5.404;2023-05-12T11:00:21;102005.72;;;18.57;71.84
71974;BME280;59840;52.122;5.404;2023-05-12T11:02:50;102002.00;;;18.48;73.34
71974;BME280;59840;52.122;5.404;2023-05-12T11:05:19;102003.06;;;18.52;71.92
71974;BME280;59840;52.122;5.404;2023-05-12T11:07:48;102004.41;;;18.60;70.08
71974;BME280;59840;52.122;5.404;2023-05-12T11:10:16;102010.78;;;18.79;69.18
71974;BME280;59840;52.122;5.404;2023-05-12T11:12:43;102011.59;;;18.90;67.14
71974;BME280;59840;52.122;5.404;2023-05-12T11:15:10;102005.16;;;18.96;66.84
71974;BME280;59840;52.122;5.404;2023-05-12T11:17:38;102008.31;;;19.08;69.51
71974;BME280;59840;52.122;5.404;2023-05-12T11:20:06;102004.81;;;19.13;66.39
71974;BME280;59840;52.122;5.404;2023-05-12T11:22:35;102005.91;;;19.06;65.56
71974;BME280;59840;52.122;5.404;2023-05-12T11:25:09;102009.41;;;19.02;68.33
71974;BME280;59840;52.122;5.404;2023-05-12T11:27:36;102008.63;;;18.96;65.88
71974;BME280;59840;52.122;5.404;2023-05-12T11:30:08;102016.94;;;18.90;64.38
71974;BME280;59840;52.122;5.404;2023-05-12T11:32:36;102020.69;;;18.84;63.83
71974;BME280;59840;52.122;5.404;2023-05-12T11:35:21;102020.69;;;18.89;65.66
71974;BME280;59840;52.122;5.404;2023-05-12T11:37:48;102019.06;;;18.98;63.96
71974;BME280;59840;52.122;5.404;2023-05-12T11:40:17;102016.09;;;19.04;67.05
71974;BME280;59840;52.122;5.404;2023-05-12T11:42:47;102022.19;;;19.15;64.64
71974;BME280;59840;52.122;5.404;2023-05-12T11:45:25;102017.59;;;19.31;64.80
71974;BME280;59840;52.122;5.404;2023-05-12T11:48:08;102022.16;;;19.30;64.55
71974;BME280;59840;52.122;5.404;2023-05-12T11:50:37;102016.53;;;19.37;63.28
71974;BME280;59840;52.122;5.404;2023-05-12T11:53:09;102027.16;;;19.47;62.95
71974;BME280;59840;52.122;5.404;2023-05-12T11:55:55;102022.03;;;19.66;65.31
71974;BME280;59840;52.122;5.404;2023-05-12T11:58:23;102020.66;;;19.73;66.98
71974;BME280;59840;52.122;5.404;2023-05-12T12:00:56;102020.94;;;19.67;61.87
71974;BME280;59840;52.122;5.404;2023-05-12T12:03:23;102020.47;;;19.55;62.35
71974;BME280;59840;52.122;5.404;2023-05-12T12:06:02;102024.50;;;19.52;63.02
71974;BME280;59840;52.122;5.404;2023-05-12T12:08:31;102022.06;;;19.56;61.83
71974;BME280;59840;52.122;5.404;2023-05-12T12:10:59;102024.22;;;19.43;59.96
71974;BME280;59840;52.122;5.404;2023-05-12T12:13:28;102020.53;;;19.34;62.75
71974;BME280;59840;52.122;5.404;2023-05-12T12:15:55;102020.00;;;19.32;61.80
71974;BME280;59840;52.122;5.404;2023-05-12T12:18:22;102030.72;;;19.27;61.44
71974;BME280;59840;52.122;5.404;2023-05-12T12:20:49;102017.63;;;19.21;60.46
71974;BME280;59840;52.122;5.404;2023-05-12T12:23:15;102023.22;;;19.29;61.18
71974;BME280;59840;52.122;5.404;2023-05-12T12:25:42;102020.53;;;19.34;62.49
71974;BME280;59840;52.122;5.404;2023-05-12T12:28:09;102029.91;;;19.37;60.71
71974;BME280;59840;52.122;5.404;2023-05-12T12:30:35;102028.81;;;19.38;60.78
71974;BME280;59840;52.122;5.404;2023-05-12T12:33:02;102026.44;;;19.31;61.12
71974;BME280;59840;52.122;5.404;2023-05-12T12:35:29;102028.03;;;19.32;60.95
71974;BME280;59840;52.122;5.404;2023-05-12T12:37:55;102023.19;;;19.39;60.07
71974;BME280;59840;52.122;5.404;2023-05-12T12:40:22;102031.19;;;19.45;60.26
71974;BME280;59840;52.122;5.404;2023-05-12T12:42:48;102032.78;;;19.46;59.24
71974;BME280;59840;52.122;5.404;2023-05-12T12:45:15;102031.72;;;19.52;60.22